sensor_id;sensor_type;location;lat;lon;timestamp;temperature;humidity
1011;DHT22;494;48.744;10.106;2022-12-01T00:01:39;6.10;40.10
1011;DHT22;494;48.744;10.106;2022-12-01T00:04:08;6.20;40.10
1011;DHT22;494;48.744;10.106;2022-12-01T00:06:37;6.20;39.90
1011;DHT22;494;48.744;10.106;2022-12-01T00:09:07;6.20;39.80
1011;DHT22;494;48.744;10.106;2022-12-01T00:11:55;6.20;39.60
1011;DHT22;494;48.744;10.106;2022-12-01T00:14:24;6.00;39.60
1011;DHT22;494;48.744;10.106;2022-12-01T00:16:53;5.90;39.40
1011;DHT22;494;48.744;10.106;2022-12-01T00:19:23;5.80;38.50
1011;DHT22;494;48.744;10.106;2022-12-01T00:21:52;5.70;39.40
1011;DHT22;494;48.744;10.106;2022-12-01T00:24:21;5.70;39.60
1011;DHT22;494;48.744;10.106;2022-12-01T00:26:51;5.80;39.90
1011;DHT22;494;48.744;10.106;2022-12-01T00:29:21;5.80;40.00
1011;DHT22;494;48.744;10.106;2022-12-01T00:31:49;5.90;40.00
1011;DHT22;494;48.744;10.106;2022-12-01T00:34:21;6.00;39.80
1011;DHT22;494;48.744;10.106;2022-12-01T00:36:52;5.90;39.60
1011;DHT22;494;48.744;10.106;2022-12-01T00:39:20;6.00;39.50
1011;DHT22;494;48.744;10.106;2022-12-01T00:41:49;6.00;39.30
1011;DHT22;494;48.744;10.106;2022-12-01T00:44:17;6.00;39.20
1011;DHT22;494;48.744;10.106;2022-12-01T00:46:48;6.00;38.80
1011;DHT22;494;48.744;10.106;2022-12-01T00:49:16;5.90;39.10
1011;DHT22;494;48.744;10.106;2022-12-01T00:51:45;5.90;38.80
1011;DHT22;494;48.744;10.106;2022-12-01T00:54:14;5.80;39.10
1011;DHT22;494;48.744;10.106;2022-12-01T00:56:42;5.80;39.20
1011;DHT22;494;48.744;10.106;2022-12-01T00:59:11;5.60;39.40
1011;DHT22;494;48.744;10.106;2022-12-01T01:01:40;5.60;39.90
1011;DHT22;494;48.744;10.106;2022-12-01T01:04:10;5.60;40.60
1011;DHT22;494;48.744;10.106;2022-12-01T01:06:39;5.70;40.70
1011;DHT22;494;48.744;10.106;2022-12-01T01:09:09;5.70;40.60
1011;DHT22;494;48.744;10.106;2022-12-01T01:11:39;5.70;40.30
1011;DHT22;494;48.744;10.106;2022-12-01T01:14:07;5.70;40.40
1011;DHT22;494;48.744;10.106;2022-12-01T01:16:36;5.80;40.30
1011;DHT22;494;48.744;10.106;2022-12-01T01:19:05;5.80;40.00
1011;DHT22;494;48.744;10.106;2022-12-01T01:21:35;5.80;39.90
1011;DHT22;494;48.744;10.106;2022-12-01T01:24:05;5.80;39.40
1011;DHT22;494;48.744;10.106;2022-12-01T01:26:34;5.70;39.50
1011;DHT22;494;48.744;10.106;2022-12-01T01:29:04;5.70;40.00
1011;DHT22;494;48.744;10.106;2022-12-01T01:31:34;5.60;40.20
1011;DHT22;494;48.744;10.106;2022-12-01T01:34:03;5.60;40.20
1011;DHT22;494;48.744;10.106;2022-12-01T01:36:34;5.70;40.30
1011;DHT22;494;48.744;10.106;2022-12-01T01:39:06;5.70;40.40
1011;DHT22;494;48.744;10.106;2022-12-01T01:41:37;5.70;39.90
1011;DHT22;494;48.744;10.106;2022-12-01T01:47:19;5.70;39.80
1011;DHT22;494;48.744;10.106;2022-12-01T01:50:23;5.70;39.90
1011;DHT22;494;48.744;10.106;2022-12-01T01:57:15;5.70;39.90
1011;DHT22;494;48.744;10.106;2022-12-01T01:59:50;5.70;40.10
1011;DHT22;494;48.744;10.106;2022-12-01T02:02:24;5.70;40.00
1011;DHT22;494;48.744;10.106;2022-12-01T02:05:22;5.80;39.90
1011;DHT22;494;48.744;10.106;2022-12-01T02:07:55;5.60;39.90
1011;DHT22;494;48.744;10.106;2022-12-01T02:10:35;5.80;39.70
1011;DHT22;494;48.744;10.106;2022-12-01T02:13:20;5.80;39.60
1011;DHT22;494;48.744;10.106;2022-12-01T02:16:02;5.90;39.40
1011;DHT22;494;48.744;10.106;2022-12-01T02:18:48;5.80;38.90
1011;DHT22;494;48.744;10.106;2022-12-01T02:21:42;5.80;39.10
1011;DHT22;494;48.744;10.106;2022-12-01T02:24:50;5.80;39.20
1011;DHT22;494;48.744;10.106;2022-12-01T02:27:40;5.90;39.40
1011;DHT22;494;48.744;10.106;2022-12-01T02:30:31;5.90;39.30
1011;DHT22;494;48.744;10.106;2022-12-01T02:33:12;5.90;39.20
1011;DHT22;494;48.744;10.106;2022-12-01T02:35:49;6.00;39.10
1011;DHT22;494;48.744;10.106;2022-12-01T02:38:26;6.00;39.00
1011;DHT22;494;48.744;10.106;2022-12-01T02:41:03;6.00;39.10
1011;DHT22;494;48.744;10.106;2022-12-01T02:43:42;6.10;39.00
1011;DHT22;494;48.744;10.106;2022-12-01T02:46:19;6.20;38.80
1011;DHT22;494;48.744;10.106;2022-12-01T02:48:57;6.10;38.70
1011;DHT22;494;48.744;10.106;2022-12-01T02:51:30;6.20;38.80
1011;DHT22;494;48.744;10.106;2022-12-01T02:54:02;6.20;38.80
1011;DHT22;494;48.744;10.106;2022-12-01T02:56:33;6.20;39.50
1011;DHT22;494;48.744;10.106;2022-12-01T02:59:04;6.10;39.30
1011;DHT22;494;48.744;10.106;2022-12-01T03:01:50;5.90;39.50
1011;DHT22;494;48.744;10.106;2022-12-01T03:04:41;6.00;39.60
1011;DHT22;494;48.744;10.106;2022-12-01T03:07:38;6.10;39.70
1011;DHT22;494;48.744;10.106;2022-12-01T03:10:18;6.00;39.60
1011;DHT22;494;48.744;10.106;2022-12-01T03:13:06;6.10;39.80
1011;DHT22;494;48.744;10.106;2022-12-01T03:15:52;6.20;39.70
1011;DHT22;494;48.744;10.106;2022-12-01T03:18:31;6.20;39.80
1011;DHT22;494;48.744;10.106;2022-12-01T03:21:07;6.30;39.20
1011;DHT22;494;48.744;10.106;2022-12-01T03:23:40;6.20;39.20
1011;DHT22;494;48.744;10.106;2022-12-01T03:26:16;6.20;39.30
1011;DHT22;494;48.744;10.106;2022-12-01T03:28:50;6.20;39.30
1011;DHT22;494;48.744;10.106;2022-12-01T03:31:25;6.20;39.10
1011;DHT22;494;48.744;10.106;2022-12-01T03:34:04;6.20;38.90
1011;DHT22;494;48.744;10.106;2022-12-01T03:36:41;6.20;39.00
1011;DHT22;494;48.744;10.106;2022-12-01T03:39:21;6.20;39.20
1011;DHT22;494;48.744;10.106;2022-12-01T03:41:59;6.20;39.00
1011;DHT22;494;48.744;10.106;2022-12-01T03:44:35;6.30;39.40
1011;DHT22;494;48.744;10.106;2022-12-01T03:47:09;6.20;39.20
1011;DHT22;494;48.744;10.106;2022-12-01T03:49:43;6.20;39.10
1011;DHT22;494;48.744;10.106;2022-12-01T03:52:19;6.20;38.90
1011;DHT22;494;48.744;10.106;2022-12-01T03:55:04;6.30;39.20
1011;DHT22;494;48.744;10.106;2022-12-01T03:57:42;6.30;39.30
1011;DHT22;494;48.744;10.106;2022-12-01T04:00:14;6.30;39.40
1011;DHT22;494;48.744;10.106;2022-12-01T04:02:44;6.30;39.40
1011;DHT22;494;48.744;10.106;2022-12-01T04:05:14;6.30;39.40
1011;DHT22;494;48.744;10.106;2022-12-01T04:07:49;6.40;39.60
1011;DHT22;494;48.744;10.106;2022-12-01T04:10:18;6.30;39.50
1011;DHT22;494;48.744;10.106;2022-12-01T04:12:47;6.30;39.80
1011;DHT22;494;48.744;10.106;2022-12-01T04:15:15;6.10;40.10
1011;DHT22;494;48.744;10.106;2022-12-01T04:17:44;6.20;40.30
1011;DHT22;494;48.744;10.106;2022-12-01T04:20:15;6.20;40.40
1011;DHT22;494;48.744;10.106;2022-12-01T04:22:44;6.20;40.30
1011;DHT22;494;48.744;10.106;2022-12-01T04:25:12;6.30;40.40
1011;DHT22;494;48.744;10.106;2022-12-01T04:27:41;6.30;40.00
1011;DHT22;494;48.744;10.106;2022-12-01T04:30:10;6.30;39.90
1011;DHT22;494;48.744;10.106;2022-12-01T04:32:41;6.30;39.50
1011;DHT22;494;48.744;10.106;2022-12-01T04:35:11;6.20;40.00
1011;DHT22;494;48.744;10.106;2022-12-01T04:37:41;6.20;40.10
1011;DHT22;494;48.744;10.106;2022-12-01T04:40:10;6.20;40.10
1011;DHT22;494;48.744;10.106;2022-12-01T04:42:39;6.20;40.00
1011;DHT22;494;48.744;10.106;2022-12-01T04:45:09;6.20;40.10
1011;DHT22;494;48.744;10.106;2022-12-01T04:47:38;6.20;40.10
1011;DHT22;494;48.744;10.106;2022-12-01T04:50:07;6.20;40.20
1011;DHT22;494;48.744;10.106;2022-12-01T04:52:36;6.30;39.90
1011;DHT22;494;48.744;10.106;2022-12-01T04:55:07;6.30;39.70
1011;DHT22;494;48.744;10.106;2022-12-01T04:57:36;6.20;39.60
1011;DHT22;494;48.744;10.106;2022-12-01T05:00:08;6.20;39.30
1011;DHT22;494;48.744;10.106;2022-12-01T05:02:39;6.10;39.70
1011;DHT22;494;48.744;10.106;2022-12-01T05:05:09;6.10;39.90
1011;DHT22;494;48.744;10.106;2022-12-01T05:07:38;6.20;40.10
1011;DHT22;494;48.744;10.106;2022-12-01T05:10:09;6.20;40.00
1011;DHT22;494;48.744;10.106;2022-12-01T05:12:40;6.20;40.00
1011;DHT22;494;48.744;10.106;2022-12-01T05:15:09;6.30;39.90
1011;DHT22;494;48.744;10.106;2022-12-01T05:17:38;6.20;39.60
1011;DHT22;494;48.744;10.106;2022-12-01T05:20:07;6.20;39.70
1011;DHT22;494;48.744;10.106;2022-12-01T05:22:59;6.20;39.70
1011;DHT22;494;48.744;10.106;2022-12-01T05:25:34;6.30;39.70
1011;DHT22;494;48.744;10.106;2022-12-01T05:28:03;6.30;39.60
1011;DHT22;494;48.744;10.106;2022-12-01T05:30:32;6.30;39.50
1011;DHT22;494;48.744;10.106;2022-12-01T05:33:01;6.30;38.90
1011;DHT22;494;48.744;10.106;2022-12-01T05:35:32;6.20;39.30
1011;DHT22;494;48.744;10.106;2022-12-01T05:38:00;6.30;39.60
1011;DHT22;494;48.744;10.106;2022-12-01T05:40:36;6.30;39.60
1011;DHT22;494;48.744;10.106;2022-12-01T05:43:05;6.30;39.70
1011;DHT22;494;48.744;10.106;2022-12-01T05:45:34;6.40;39.40
1011;DHT22;494;48.744;10.106;2022-12-01T05:48:03;6.40;39.40
1011;DHT22;494;48.744;10.106;2022-12-01T05:50:32;6.40;39.30
1011;DHT22;494;48.744;10.106;2022-12-01T05:53:04;6.40;39.30
1011;DHT22;494;48.744;10.106;2022-12-01T05:55:34;6.40;39.20
1011;DHT22;494;48.744;10.106;2022-12-01T05:58:03;6.40;39.10
1011;DHT22;494;48.744;10.106;2022-12-01T06:00:32;6.50;39.40
1011;DHT22;494;48.744;10.106;2022-12-01T06:03:09;6.50;39.40
1011;DHT22;494;48.744;10.106;2022-12-01T06:05:39;6.50;39.30
1011;DHT22;494;48.744;10.106;2022-12-01T06:08:08;6.50;39.70
1011;DHT22;494;48.744;10.106;2022-12-01T06:10:38;6.50;39.20
1011;DHT22;494;48.744;10.106;2022-12-01T06:13:07;6.50;39.00
1011;DHT22;494;48.744;10.106;2022-12-01T06:15:35;6.50;38.90
1011;DHT22;494;48.744;10.106;2022-12-01T06:18:09;6.50;39.00
1011;DHT22;494;48.744;10.106;2022-12-01T06:20:38;6.40;39.00
1011;DHT22;494;48.744;10.106;2022-12-01T06:23:06;6.40;39.00
1011;DHT22;494;48.744;10.106;2022-12-01T06:25:35;6.30;39.80
1011;DHT22;494;48.744;10.106;2022-12-01T06:28:06;6.30;39.30
1011;DHT22;494;48.744;10.106;2022-12-01T06:30:35;6.30;39.60
1011;DHT22;494;48.744;10.106;2022-12-01T06:33:04;6.30;39.60
1011;DHT22;494;48.744;10.106;2022-12-01T06:35:33;6.40;39.60
1011;DHT22;494;48.744;10.106;2022-12-01T06:38:02;6.40;39.40
1011;DHT22;494;48.744;10.106;2022-12-01T06:40:31;6.40;39.30
1011;DHT22;494;48.744;10.106;2022-12-01T06:43:01;6.40;38.90
1011;DHT22;494;48.744;10.106;2022-12-01T06:45:31;6.10;39.10
1011;DHT22;494;48.744;10.106;2022-12-01T06:48:00;6.00;39.70
1011;DHT22;494;48.744;10.106;2022-12-01T06:50:29;6.00;40.20
1011;DHT22;494;48.744;10.106;2022-12-01T06:52:58;6.00;40.70
1011;DHT22;494;48.744;10.106;2022-12-01T06:55:27;6.10;41.00
1011;DHT22;494;48.744;10.106;2022-12-01T06:57:58;6.10;40.60
1011;DHT22;494;48.744;10.106;2022-12-01T07:00:27;6.10;40.10
1011;DHT22;494;48.744;10.106;2022-12-01T07:02:58;6.00;40.40
1011;DHT22;494;48.744;10.106;2022-12-01T07:05:27;6.10;40.50
1011;DHT22;494;48.744;10.106;2022-12-01T07:07:56;6.10;40.30
1011;DHT22;494;48.744;10.106;2022-12-01T07:10:26;6.00;40.50
1011;DHT22;494;48.744;10.106;2022-12-01T07:12:55;6.00;40.40
1011;DHT22;494;48.744;10.106;2022-12-01T07:15:24;6.10;40.20
1011;DHT22;494;48.744;10.106;2022-12-01T07:17:54;6.00;40.50
1011;DHT22;494;48.744;10.106;2022-12-01T07:20:24;6.00;40.60
1011;DHT22;494;48.744;10.106;2022-12-01T07:22:53;6.10;40.70
1011;DHT22;494;48.744;10.106;2022-12-01T07:25:21;6.20;40.60
1011;DHT22;494;48.744;10.106;2022-12-01T07:27:50;6.10;40.60
1011;DHT22;494;48.744;10.106;2022-12-01T07:30:18;6.20;40.30
1011;DHT22;494;48.744;10.106;2022-12-01T07:32:54;6.20;40.50
1011;DHT22;494;48.744;10.106;2022-12-01T07:35:24;6.20;39.80
1011;DHT22;494;48.744;10.106;2022-12-01T07:37:53;6.20;40.00
1011;DHT22;494;48.744;10.106;2022-12-01T07:40:22;6.40;40.00
1011;DHT22;494;48.744;10.106;2022-12-01T07:42:51;6.40;39.90
1011;DHT22;494;48.744;10.106;2022-12-01T07:45:19;6.50;39.30
1011;DHT22;494;48.744;10.106;2022-12-01T07:47:51;6.50;39.30
1011;DHT22;494;48.744;10.106;2022-12-01T07:50:20;6.50;39.30
1011;DHT22;494;48.744;10.106;2022-12-01T07:52:50;6.60;39.30
1011;DHT22;494;48.744;10.106;2022-12-01T07:55:19;6.60;38.80
1011;DHT22;494;48.744;10.106;2022-12-01T07:57:47;6.60;38.90
1011;DHT22;494;48.744;10.106;2022-12-01T08:00:16;6.50;38.80
1011;DHT22;494;48.744;10.106;2022-12-01T08:02:47;6.50;38.80
1011;DHT22;494;48.744;10.106;2022-12-01T08:05:16;6.50;39.10
1011;DHT22;494;48.744;10.106;2022-12-01T08:07:44;6.50;39.30
1011;DHT22;494;48.744;10.106;2022-12-01T08:10:14;6.40;38.90
1011;DHT22;494;48.744;10.106;2022-12-01T08:12:45;6.40;39.20
1011;DHT22;494;48.744;10.106;2022-12-01T08:15:14;6.30;39.40
1011;DHT22;494;48.744;10.106;2022-12-01T08:17:43;6.30;39.80
1011;DHT22;494;48.744;10.106;2022-12-01T08:20:13;6.30;39.60
1011;DHT22;494;48.744;10.106;2022-12-01T08:22:49;6.30;40.30
1011;DHT22;494;48.744;10.106;2022-12-01T08:25:19;6.20;39.70
1011;DHT22;494;48.744;10.106;2022-12-01T08:27:48;6.20;40.00
1011;DHT22;494;48.744;10.106;2022-12-01T08:30:16;6.20;40.50
1011;DHT22;494;48.744;10.106;2022-12-01T08:32:45;6.30;40.40
1011;DHT22;494;48.744;10.106;2022-12-01T08:35:14;6.40;40.00
1011;DHT22;494;48.744;10.106;2022-12-01T08:37:42;6.40;39.80
1011;DHT22;494;48.744;10.106;2022-12-01T08:40:11;6.50;39.60
1011;DHT22;494;48.744;10.106;2022-12-01T08:42:41;6.50;39.50
1011;DHT22;494;48.744;10.106;2022-12-01T08:45:10;6.50;39.30
1011;DHT22;494;48.744;10.106;2022-12-01T08:47:39;6.50;39.40
1011;DHT22;494;48.744;10.106;2022-12-01T08:50:08;6.40;39.30
1011;DHT22;494;48.744;10.106;2022-12-01T08:52:38;6.40;39.70
1011;DHT22;494;48.744;10.106;2022-12-01T08:55:07;6.30;40.00
1011;DHT22;494;48.744;10.106;2022-12-01T08:57:36;6.40;39.80
1011;DHT22;494;48.744;10.106;2022-12-01T09:00:07;6.30;39.80
1011;DHT22;494;48.744;10.106;2022-12-01T09:02:36;6.30;40.30
1011;DHT22;494;48.744;10.106;2022-12-01T09:05:06;6.30;39.90
1011;DHT22;494;48.744;10.106;2022-12-01T09:07:35;6.10;40.90
1011;DHT22;494;48.744;10.106;2022-12-01T09:10:04;6.30;41.20
1011;DHT22;494;48.744;10.106;2022-12-01T09:12:33;6.40;40.90
1011;DHT22;494;48.744;10.106;2022-12-01T09:15:02;6.50;40.60
1011;DHT22;494;48.744;10.106;2022-12-01T09:17:33;6.60;40.20
1011;DHT22;494;48.744;10.106;2022-12-01T09:20:01;6.70;40.70
1011;DHT22;494;48.744;10.106;2022-12-01T09:22:30;6.80;39.60
1011;DHT22;494;48.744;10.106;2022-12-01T09:25:01;6.80;39.40
1011;DHT22;494;48.744;10.106;2022-12-01T09:27:29;6.90;39.20
1011;DHT22;494;48.744;10.106;2022-12-01T09:29:58;6.90;38.90
1011;DHT22;494;48.744;10.106;2022-12-01T09:32:26;7.00;38.60
1011;DHT22;494;48.744;10.106;2022-12-01T09:34:56;7.00;38.70
1011;DHT22;494;48.744;10.106;2022-12-01T09:37:25;7.10;38.50
1011;DHT22;494;48.744;10.106;2022-12-01T09:39:54;7.20;38.30
1011;DHT22;494;48.744;10.106;2022-12-01T09:42:22;7.30;38.10
1011;DHT22;494;48.744;10.106;2022-12-01T09:45:02;7.20;37.30
1011;DHT22;494;48.744;10.106;2022-12-01T09:47:33;7.10;37.40
1011;DHT22;494;48.744;10.106;2022-12-01T09:50:09;7.00;37.50
1011;DHT22;494;48.744;10.106;2022-12-01T09:52:40;7.00;38.00
1011;DHT22;494;48.744;10.106;2022-12-01T09:55:14;7.00;38.20
1011;DHT22;494;48.744;10.106;2022-12-01T09:57:46;7.00;37.90
1011;DHT22;494;48.744;10.106;2022-12-01T10:00:18;6.90;38.10
1011;DHT22;494;48.744;10.106;2022-12-01T10:02:52;7.10;38.40
1011;DHT22;494;48.744;10.106;2022-12-01T10:05:40;7.20;38.50
1011;DHT22;494;48.744;10.106;2022-12-01T10:08:34;7.20;37.50
1011;DHT22;494;48.744;10.106;2022-12-01T10:11:15;7.30;37.80
1011;DHT22;494;48.744;10.106;2022-12-01T10:13:51;7.40;37.90
1011;DHT22;494;48.744;10.106;2022-12-01T10:16:23;7.50;37.90
1011;DHT22;494;48.744;10.106;2022-12-01T10:19:00;7.60;37.60
1011;DHT22;494;48.744;10.106;2022-12-01T10:21:51;7.60;37.10
1011;DHT22;494;48.744;10.106;2022-12-01T10:24:45;7.60;36.60
1011;DHT22;494;48.744;10.106;2022-12-01T10:27:31;7.50;36.20
1011;DHT22;494;48.744;10.106;2022-12-01T10:30:11;7.40;36.50
1011;DHT22;494;48.744;10.106;2022-12-01T10:32:49;7.40;36.50
1011;DHT22;494;48.744;10.106;2022-12-01T10:35:22;7.50;36.60
1011;DHT22;494;48.744;10.106;2022-12-01T10:37:58;7.50;36.60
1011;DHT22;494;48.744;10.106;2022-12-01T10:40:28;7.60;36.50
1011;DHT22;494;48.744;10.106;2022-12-01T10:43:00;7.60;35.80
1011;DHT22;494;48.744;10.106;2022-12-01T10:45:33;7.50;36.30
1011;DHT22;494;48.744;10.106;2022-12-01T10:48:13;7.40;36.80
1011;DHT22;494;48.744;10.106;2022-12-01T10:50:44;7.50;36.50
1011;DHT22;494;48.744;10.106;2022-12-01T10:53:27;7.40;36.70
1011;DHT22;494;48.744;10.106;2022-12-01T10:56:01;7.50;36.30
1011;DHT22;494;48.744;10.106;2022-12-01T10:58:41;7.50;36.60
1011;DHT22;494;48.744;10.106;2022-12-01T11:01:17;7.70;37.20
1011;DHT22;494;48.744;10.106;2022-12-01T11:03:53;7.90;37.40
1011;DHT22;494;48.744;10.106;2022-12-01T11:06:27;7.90;35.50
1011;DHT22;494;48.744;10.106;2022-12-01T11:09:00;7.90;35.90
1011;DHT22;494;48.744;10.106;2022-12-01T11:11:32;7.90;36.00
1011;DHT22;494;48.744;10.106;2022-12-01T11:14:06;8.10;34.80
1011;DHT22;494;48.744;10.106;2022-12-01T11:16:46;7.90;34.80
1011;DHT22;494;48.744;10.106;2022-12-01T11:19:29;7.80;35.70
1011;DHT22;494;48.744;10.106;2022-12-01T11:22:01;7.80;36.40
1011;DHT22;494;48.744;10.106;2022-12-01T11:24:57;7.80;37.00
1011;DHT22;494;48.744;10.106;2022-12-01T11:27:31;7.60;36.50
1011;DHT22;494;48.744;10.106;2022-12-01T11:30:06;7.60;36.00
1011;DHT22;494;48.744;10.106;2022-12-01T11:32:51;7.60;36.70
1011;DHT22;494;48.744;10.106;2022-12-01T11:35:23;7.60;36.20
1011;DHT22;494;48.744;10.106;2022-12-01T11:37:56;7.60;36.60
1011;DHT22;494;48.744;10.106;2022-12-01T11:40:50;7.70;36.10
1011;DHT22;494;48.744;10.106;2022-12-01T11:43:24;7.70;36.00
1011;DHT22;494;48.744;10.106;2022-12-01T11:45:57;7.70;36.20
1011;DHT22;494;48.744;10.106;2022-12-01T11:48:30;7.80;36.30
1011;DHT22;494;48.744;10.106;2022-12-01T11:51:06;7.90;35.90
1011;DHT22;494;48.744;10.106;2022-12-01T11:53:40;7.90;35.60
1011;DHT22;494;48.744;10.106;2022-12-01T11:56:17;7.90;35.40
1011;DHT22;494;48.744;10.106;2022-12-01T11:58:52;8.00;35.30
1011;DHT22;494;48.744;10.106;2022-12-01T12:01:33;8.10;35.40
1011;DHT22;494;48.744;10.106;2022-12-01T12:04:19;7.90;35.10
1011;DHT22;494;48.744;10.106;2022-12-01T12:07:03;8.00;35.50
1011;DHT22;494;48.744;10.106;2022-12-01T12:09:50;8.10;35.70
1011;DHT22;494;48.744;10.106;2022-12-01T12:12:45;8.10;35.10
1011;DHT22;494;48.744;10.106;2022-12-01T12:15:30;8.20;34.40
1011;DHT22;494;48.744;10.106;2022-12-01T12:18:29;8.10;34.40
1011;DHT22;494;48.744;10.106;2022-12-01T12:21:22;8.20;34.40
1011;DHT22;494;48.744;10.106;2022-12-01T12:24:29;8.10;34.50
1011;DHT22;494;48.744;10.106;2022-12-01T12:27:09;8.10;34.70
1011;DHT22;494;48.744;10.106;2022-12-01T12:29:58;8.20;34.50
1011;DHT22;494;48.744;10.106;2022-12-01T12:33:06;8.30;34.90
1011;DHT22;494;48.744;10.106;2022-12-01T12:35:56;8.30;34.20
1011;DHT22;494;48.744;10.106;2022-12-01T12:38:48;8.30;34.00
1011;DHT22;494;48.744;10.106;2022-12-01T12:41:33;8.30;34.30
1011;DHT22;494;48.744;10.106;2022-12-01T12:44:20;8.20;34.40
1011;DHT22;494;48.744;10.106;2022-12-01T12:47:22;8.20;34.40
1011;DHT22;494;48.744;10.106;2022-12-01T12:50:11;8.20;35.20
1011;DHT22;494;48.744;10.106;2022-12-01T12:52:49;8.20;34.90
1011;DHT22;494;48.744;10.106;2022-12-01T12:55:29;8.30;34.90
1011;DHT22;494;48.744;10.106;2022-12-01T12:58:05;8.20;34.50
1011;DHT22;494;48.744;10.106;2022-12-01T13:00:39;8.00;34.60
1011;DHT22;494;48.744;10.106;2022-12-01T13:03:20;7.90;35.30
1011;DHT22;494;48.744;10.106;2022-12-01T13:06:02;7.90;35.20
1011;DHT22;494;48.744;10.106;2022-12-01T13:08:37;7.80;35.80
1011;DHT22;494;48.744;10.106;2022-12-01T13:11:17;7.80;35.90
1011;DHT22;494;48.744;10.106;2022-12-01T13:13:55;7.90;36.00
1011;DHT22;494;48.744;10.106;2022-12-01T13:16:32;7.90;36.00
1011;DHT22;494;48.744;10.106;2022-12-01T13:19:10;8.00;35.80
1011;DHT22;494;48.744;10.106;2022-12-01T13:21:46;8.00;35.50
1011;DHT22;494;48.744;10.106;2022-12-01T13:24:18;8.00;35.50
1011;DHT22;494;48.744;10.106;2022-12-01T13:26:53;8.10;35.70
1011;DHT22;494;48.744;10.106;2022-12-01T13:29:28;8.10;35.30
1011;DHT22;494;48.744;10.106;2022-12-01T13:31:59;8.00;35.50
1011;DHT22;494;48.744;10.106;2022-12-01T13:34:33;8.10;35.40
1011;DHT22;494;48.744;10.106;2022-12-01T13:37:05;8.10;35.30
1011;DHT22;494;48.744;10.106;2022-12-01T13:39:37;8.20;35.20
1011;DHT22;494;48.744;10.106;2022-12-01T13:42:17;8.30;35.00
1011;DHT22;494;48.744;10.106;2022-12-01T13:44:51;8.30;35.20
1011;DHT22;494;48.744;10.106;2022-12-01T13:47:31;8.30;34.50
1011;DHT22;494;48.744;10.106;2022-12-01T13:53:35;8.20;35.00
1011;DHT22;494;48.744;10.106;2022-12-01T13:58:54;8.20;34.80
1011;DHT22;494;48.744;10.106;2022-12-01T14:01:43;8.20;34.60
1011;DHT22;494;48.744;10.106;2022-12-01T14:04:28;8.30;35.30
1011;DHT22;494;48.744;10.106;2022-12-01T14:07:25;8.20;35.20
1011;DHT22;494;48.744;10.106;2022-12-01T14:10:25;8.20;35.30
1011;DHT22;494;48.744;10.106;2022-12-01T14:13:01;8.10;35.40
1011;DHT22;494;48.744;10.106;2022-12-01T14:15:37;8.10;35.60
1011;DHT22;494;48.744;10.106;2022-12-01T14:18:34;8.10;35.50
1011;DHT22;494;48.744;10.106;2022-12-01T14:21:06;8.10;35.60
1011;DHT22;494;48.744;10.106;2022-12-01T14:23:39;8.10;35.40
1011;DHT22;494;48.744;10.106;2022-12-01T14:26:29;8.20;35.40
1011;DHT22;494;48.744;10.106;2022-12-01T14:29:29;8.10;35.40
1011;DHT22;494;48.744;10.106;2022-12-01T14:32:23;8.10;35.60
1011;DHT22;494;48.744;10.106;2022-12-01T14:35:10;8.10;35.70
1011;DHT22;494;48.744;10.106;2022-12-01T14:37:44;8.10;35.50
1011;DHT22;494;48.744;10.106;2022-12-01T15:07:00;8.10;35.40
1011;DHT22;494;48.744;10.106;2022-12-01T15:28:43;8.20;35.50
1011;DHT22;494;48.744;10.106;2022-12-01T15:40:13;8.20;35.80
1011;DHT22;494;48.744;10.106;2022-12-01T15:48:23;8.30;35.50
1011;DHT22;494;48.744;10.106;2022-12-01T15:52:11;8.20;35.70
1011;DHT22;494;48.744;10.106;2022-12-01T16:00:24;8.20;35.70
1011;DHT22;494;48.744;10.106;2022-12-01T16:03:21;8.20;35.70
1011;DHT22;494;48.744;10.106;2022-12-01T16:06:07;8.10;35.70
1011;DHT22;494;48.744;10.106;2022-12-01T16:08:59;8.30;35.90
1011;DHT22;494;48.744;10.106;2022-12-01T16:12:17;8.10;36.00
1011;DHT22;494;48.744;10.106;2022-12-01T16:15:15;8.10;35.80
1011;DHT22;494;48.744;10.106;2022-12-01T16:18:25;8.20;36.30
1011;DHT22;494;48.744;10.106;2022-12-01T16:21:02;8.10;36.70
1011;DHT22;494;48.744;10.106;2022-12-01T16:23:38;8.00;37.30
1011;DHT22;494;48.744;10.106;2022-12-01T16:26:08;8.00;37.60
1011;DHT22;494;48.744;10.106;2022-12-01T16:28:47;8.00;37.80
1011;DHT22;494;48.744;10.106;2022-12-01T16:31:31;8.00;38.00
1011;DHT22;494;48.744;10.106;2022-12-01T16:34:43;7.80;38.80
1011;DHT22;494;48.744;10.106;2022-12-01T16:37:19;7.80;39.20
1011;DHT22;494;48.744;10.106;2022-12-01T16:39:49;7.80;39.40
1011;DHT22;494;48.744;10.106;2022-12-01T16:42:20;7.80;39.60
1011;DHT22;494;48.744;10.106;2022-12-01T16:45:04;7.80;40.00
1011;DHT22;494;48.744;10.106;2022-12-01T16:47:50;7.80;40.80
1011;DHT22;494;48.744;10.106;2022-12-01T16:50:25;7.70;41.20
1011;DHT22;494;48.744;10.106;2022-12-01T16:53:16;7.70;42.30
1011;DHT22;494;48.744;10.106;2022-12-01T16:57:38;7.60;42.20
1011;DHT22;494;48.744;10.106;2022-12-01T17:00:57;7.60;42.30
1011;DHT22;494;48.744;10.106;2022-12-01T17:06:40;7.50;43.40
1011;DHT22;494;48.744;10.106;2022-12-01T17:09:16;7.50;43.50
1011;DHT22;494;48.744;10.106;2022-12-01T17:12:00;7.50;43.50
1011;DHT22;494;48.744;10.106;2022-12-01T17:18:36;7.40;43.60
1011;DHT22;494;48.744;10.106;2022-12-01T17:21:08;7.50;44.00
1011;DHT22;494;48.744;10.106;2022-12-01T17:23:39;7.50;44.00
1011;DHT22;494;48.744;10.106;2022-12-01T17:26:14;7.50;44.00
1011;DHT22;494;48.744;10.106;2022-12-01T17:28:44;7.40;44.00
1011;DHT22;494;48.744;10.106;2022-12-01T17:31:13;7.40;44.20
1011;DHT22;494;48.744;10.106;2022-12-01T17:33:42;7.30;44.60
1011;DHT22;494;48.744;10.106;2022-12-01T17:36:13;7.30;44.60
1011;DHT22;494;48.744;10.106;2022-12-01T17:38:45;7.30;44.80
1011;DHT22;494;48.744;10.106;2022-12-01T17:41:16;7.30;44.90
1011;DHT22;494;48.744;10.106;2022-12-01T17:43:47;7.30;44.80
1011;DHT22;494;48.744;10.106;2022-12-01T17:46:16;7.30;45.10
1011;DHT22;494;48.744;10.106;2022-12-01T17:48:45;7.30;44.70
1011;DHT22;494;48.744;10.106;2022-12-01T17:51:15;7.30;44.90
1011;DHT22;494;48.744;10.106;2022-12-01T17:53:45;7.30;44.70
1011;DHT22;494;48.744;10.106;2022-12-01T17:56:15;7.30;44.60
1011;DHT22;494;48.744;10.106;2022-12-01T17:58:44;7.40;44.60
1011;DHT22;494;48.744;10.106;2022-12-01T18:01:14;7.40;44.40
1011;DHT22;494;48.744;10.106;2022-12-01T18:03:45;7.40;44.40
1011;DHT22;494;48.744;10.106;2022-12-01T18:06:15;7.30;44.50
1011;DHT22;494;48.744;10.106;2022-12-01T18:08:46;7.40;44.30
1011;DHT22;494;48.744;10.106;2022-12-01T18:11:15;7.30;44.00
1011;DHT22;494;48.744;10.106;2022-12-01T18:13:46;7.30;44.30
1011;DHT22;494;48.744;10.106;2022-12-01T18:16:20;7.40;44.20
1011;DHT22;494;48.744;10.106;2022-12-01T18:18:50;7.50;44.10
1011;DHT22;494;48.744;10.106;2022-12-01T18:21:21;7.50;43.60
1011;DHT22;494;48.744;10.106;2022-12-01T18:23:54;7.40;43.10
1011;DHT22;494;48.744;10.106;2022-12-01T18:26:25;7.40;44.00
1011;DHT22;494;48.744;10.106;2022-12-01T18:28:57;7.50;43.60
1011;DHT22;494;48.744;10.106;2022-12-01T18:31:27;7.40;43.20
1011;DHT22;494;48.744;10.106;2022-12-01T18:33:58;7.50;43.30
1011;DHT22;494;48.744;10.106;2022-12-01T18:36:29;7.50;43.20
1011;DHT22;494;48.744;10.106;2022-12-01T18:39:01;7.40;43.30